PWSweather.com
Personal Weather Stations
Station Observations
KVAGLENALL
West Henrico, Glen Allen, VA 23060-6503

West HenricoGlen Allen, VA 23060-6503

Lat: 37.6554, Lon: -77.5693

Elevation: 273

Station Type: Davis Vantage Pro II

www.glenallenweather.com

High Low Average
Temperature 91.1°F32.8°C 70.9°F21.6°C 80.3°F26.8°C
Dew Point 77.1°F25.1°C 70.0°F21.1°C 73.5°F23.1°C
Winds 7.0 mph 11.3 kmh Calm Calm 2.0 mph SSW3.2 kmh SSW
Wind Gusts 11.1 mph17.9 kmh -- 3.0 mph4.8 kmh
Humidity 99% 58% 81%
Pressure 29.86 in1011.2 mb 29.74 in1007.1 mb -
Precipitation 0.00 in0.0 mm - -
Hour Temp Dew Point Humidity Winds Wind Gusts Pressure Precip Precip Rate Daily Precip Total
12:00 AM 71.4°F21.9°C 70.2°F21.2°C 96% Calm Calm -- 29.87 in1011.5 mb 0.02 in0.5 mm 0.00 in0.0 mm 0.02 in0.5 mm
12:15 AM 71.2°F21.8°C 70.0°F21.1°C 96% Calm Calm -- 29.87 in1011.5 mb 0.02 in0.5 mm 0.00 in0.0 mm 0.02 in0.5 mm
12:30 AM 71.2°F21.8°C 70.3°F21.3°C 97% Calm Calm -- 29.87 in1011.5 mb 0.00 in0.0 mm 0.00 in0.0 mm 0.02 in0.5 mm
12:45 AM 71.4°F21.9°C 70.5°F21.4°C 97% Calm Calm -- 29.87 in1011.5 mb 0.00 in0.0 mm 0.00 in0.0 mm 0.02 in0.5 mm
01:00 AM 71.1°F21.7°C 70.2°F21.2°C 97% Calm Calm -- 29.86 in1011.2 mb 0.00 in0.0 mm 0.00 in0.0 mm 0.02 in0.5 mm
01:15 AM 71.0°F21.7°C 70.1°F21.2°C 97% 1.0 mph S1.6 kmh S 1.0 mph1.6 kmh 29.86 in1011.2 mb 0.00 in0.0 mm 0.00 in0.0 mm 0.02 in0.5 mm
01:30 AM 70.9°F21.6°C 70.0°F21.1°C 97% 1.0 mph S1.6 kmh S 2.0 mph3.2 kmh 29.85 in1010.8 mb 0.00 in0.0 mm 0.00 in0.0 mm 0.02 in0.5 mm
01:45 AM 70.9°F21.6°C 70.0°F21.1°C 97% 2.0 mph S3.2 kmh S 3.0 mph4.8 kmh 29.85 in1010.8 mb 0.00 in0.0 mm 0.00 in0.0 mm 0.02 in0.5 mm
02:00 AM 71.0°F21.7°C 70.1°F21.2°C 97% 3.0 mph S4.8 kmh S 4.0 mph6.4 kmh 29.84 in1010.5 mb 0.00 in0.0 mm 0.00 in0.0 mm 0.02 in0.5 mm
02:15 AM 71.0°F21.7°C 70.4°F21.3°C 98% 2.0 mph S3.2 kmh S 4.0 mph6.4 kmh 29.84 in1010.5 mb 0.00 in0.0 mm 0.00 in0.0 mm 0.02 in0.5 mm
02:30 AM 71.1°F21.7°C 70.5°F21.4°C 98% 1.0 mph S1.6 kmh S 4.0 mph6.4 kmh 29.83 in1010.2 mb 0.00 in0.0 mm 0.00 in0.0 mm 0.02 in0.5 mm
02:45 AM 71.2°F21.8°C 70.6°F21.4°C 98% Calm Calm 5.1 mph8.2 kmh 29.83 in1010.2 mb 0.00 in0.0 mm 0.00 in0.0 mm 0.02 in0.5 mm
03:00 AM 71.2°F21.8°C 70.6°F21.4°C 98% 1.0 mph S1.6 kmh S 5.1 mph8.2 kmh 29.83 in1010.2 mb 0.00 in0.0 mm 0.00 in0.0 mm 0.02 in0.5 mm
03:15 AM 71.1°F21.7°C 70.5°F21.4°C 98% 2.0 mph S3.2 kmh S 4.0 mph6.4 kmh 29.82 in1009.8 mb 0.00 in0.0 mm 0.00 in0.0 mm 0.02 in0.5 mm
03:30 AM 71.0°F21.7°C 70.4°F21.3°C 98% 1.0 mph SSW1.6 kmh SSW 3.0 mph4.8 kmh 29.82 in1009.8 mb 0.00 in0.0 mm 0.00 in0.0 mm 0.02 in0.5 mm
03:45 AM 71.2°F21.8°C 70.6°F21.4°C 98% 1.0 mph SSW1.6 kmh SSW 4.0 mph6.4 kmh 29.83 in1010.2 mb 0.00 in0.0 mm 0.00 in0.0 mm 0.02 in0.5 mm
04:00 AM 71.2°F21.8°C 70.6°F21.4°C 98% 2.0 mph SSW3.2 kmh SSW 4.0 mph6.4 kmh 29.83 in1010.2 mb 0.00 in0.0 mm 0.00 in0.0 mm 0.02 in0.5 mm
04:15 AM 71.3°F21.8°C 71.0°F21.7°C 99% 3.0 mph SSW4.8 kmh SSW 3.0 mph4.8 kmh 29.83 in1010.2 mb 0.00 in0.0 mm 0.00 in0.0 mm 0.02 in0.5 mm
04:30 AM 71.4°F21.9°C 70.8°F21.6°C 98% 3.0 mph SW4.8 kmh SW 6.1 mph9.8 kmh 29.82 in1009.8 mb 0.00 in0.0 mm 0.00 in0.0 mm 0.02 in0.5 mm
04:45 AM 71.5°F21.9°C 71.2°F21.8°C 99% 4.0 mph SSW6.4 kmh SSW 7.1 mph11.4 kmh 29.82 in1009.8 mb 0.00 in0.0 mm 0.00 in0.0 mm 0.02 in0.5 mm
05:00 AM 71.5°F21.9°C 71.2°F21.8°C 99% 2.0 mph SSW3.2 kmh SSW 6.1 mph9.8 kmh 29.81 in1009.5 mb 0.00 in0.0 mm 0.00 in0.0 mm 0.02 in0.5 mm
05:15 AM 71.3°F21.8°C 70.7°F21.5°C 98% 2.0 mph SW3.2 kmh SW 4.0 mph6.4 kmh 29.82 in1009.8 mb 0.00 in0.0 mm 0.00 in0.0 mm 0.02 in0.5 mm
05:30 AM 71.4°F21.9°C 71.1°F21.7°C 99% 1.0 mph SSW1.6 kmh SSW 4.0 mph6.4 kmh 29.82 in1009.8 mb 0.00 in0.0 mm 0.00 in0.0 mm 0.02 in0.5 mm
05:45 AM 71.6°F22.0°C 71.3°F21.8°C 99% 4.0 mph SW6.4 kmh SW 5.1 mph8.2 kmh 29.82 in1009.8 mb 0.00 in0.0 mm 0.00 in0.0 mm 0.02 in0.5 mm
06:00 AM 71.6°F22.0°C 71.0°F21.7°C 98% 2.0 mph SW3.2 kmh SW 7.1 mph11.4 kmh 29.83 in1010.2 mb 0.00 in0.0 mm 0.00 in0.0 mm 0.02 in0.5 mm
06:15 AM 71.5°F21.9°C 71.2°F21.8°C 99% 3.0 mph SSW4.8 kmh SSW 6.1 mph9.8 kmh 29.83 in1010.2 mb 0.00 in0.0 mm 0.00 in0.0 mm 0.02 in0.5 mm
06:30 AM 71.5°F21.9°C 71.2°F21.8°C 99% 3.0 mph SW4.8 kmh SW 5.1 mph8.2 kmh 29.83 in1010.2 mb 0.00 in0.0 mm 0.00 in0.0 mm 0.02 in0.5 mm
06:45 AM 71.5°F21.9°C 71.2°F21.8°C 99% Calm Calm 3.0 mph4.8 kmh 29.84 in1010.5 mb 0.00 in0.0 mm 0.00 in0.0 mm 0.02 in0.5 mm
07:00 AM 71.7°F22.1°C 71.4°F21.9°C 99% 4.0 mph SSW6.4 kmh SSW 4.0 mph6.4 kmh 29.84 in1010.5 mb 0.00 in0.0 mm 0.00 in0.0 mm 0.02 in0.5 mm
07:15 AM 71.6°F22.0°C 71.0°F21.7°C 98% 3.0 mph SSW4.8 kmh SSW 4.0 mph6.4 kmh 29.84 in1010.5 mb 0.00 in0.0 mm 0.00 in0.0 mm 0.02 in0.5 mm
07:30 AM 72.0°F22.2°C 71.7°F22.1°C 99% 3.0 mph S4.8 kmh S 5.1 mph8.2 kmh 29.85 in1010.8 mb 0.00 in0.0 mm 0.00 in0.0 mm 0.02 in0.5 mm
07:45 AM 72.2°F22.3°C 71.6°F22.0°C 98% 1.0 mph SSW1.6 kmh SSW 2.0 mph3.2 kmh 29.84 in1010.5 mb 0.00 in0.0 mm 0.00 in0.0 mm 0.02 in0.5 mm
08:00 AM 72.6°F22.6°C 71.7°F22.1°C 97% 1.0 mph SW1.6 kmh SW 4.0 mph6.4 kmh 29.85 in1010.8 mb 0.00 in0.0 mm 0.00 in0.0 mm 0.02 in0.5 mm
08:15 AM 73.2°F22.9°C 72.0°F22.2°C 96% 2.0 mph S3.2 kmh S 3.0 mph4.8 kmh 29.84 in1010.5 mb 0.00 in0.0 mm 0.00 in0.0 mm 0.02 in0.5 mm
08:30 AM 74.3°F23.5°C 72.8°F22.7°C 95% 2.0 mph SW3.2 kmh SW 2.0 mph3.2 kmh 29.85 in1010.8 mb 0.00 in0.0 mm 0.00 in0.0 mm 0.02 in0.5 mm
08:45 AM 75.9°F24.4°C 74.0°F23.3°C 94% Calm Calm -- 29.85 in1010.8 mb 0.00 in0.0 mm 0.00 in0.0 mm 0.02 in0.5 mm
09:00 AM 78.0°F25.6°C 75.2°F24.0°C 91% Calm Calm -- 29.84 in1010.5 mb 0.00 in0.0 mm 0.00 in0.0 mm 0.02 in0.5 mm
09:15 AM 79.7°F26.5°C 75.8°F24.3°C 88% Calm Calm 1.0 mph1.6 kmh 29.85 in1010.8 mb 0.00 in0.0 mm 0.00 in0.0 mm 0.02 in0.5 mm
09:30 AM 81.2°F27.3°C 75.9°F24.4°C 84% Calm Calm -- 29.85 in1010.8 mb 0.00 in0.0 mm 0.00 in0.0 mm 0.02 in0.5 mm
09:45 AM 81.7°F27.6°C 74.9°F23.8°C 80% 2.0 mph WSW3.2 kmh WSW 3.0 mph4.8 kmh 29.85 in1010.8 mb 0.00 in0.0 mm 0.00 in0.0 mm 0.02 in0.5 mm
10:00 AM 82.4°F28.0°C 74.9°F23.8°C 78% Calm Calm 2.0 mph3.2 kmh 29.85 in1010.8 mb 0.00 in0.0 mm 0.00 in0.0 mm 0.02 in0.5 mm
10:15 AM 83.2°F28.4°C 76.0°F24.4°C 79% 1.0 mph SE1.6 kmh SE 1.0 mph1.6 kmh 29.86 in1011.2 mb 0.00 in0.0 mm 0.00 in0.0 mm 0.02 in0.5 mm
10:30 AM 84.1°F28.9°C 74.9°F23.8°C 74% 1.0 mph N1.6 kmh N 2.0 mph3.2 kmh 29.85 in1010.8 mb 0.00 in0.0 mm 0.00 in0.0 mm 0.02 in0.5 mm
10:45 AM 84.5°F29.2°C 75.3°F24.1°C 74% 2.0 mph NE3.2 kmh NE 2.0 mph3.2 kmh 29.85 in1010.8 mb 0.00 in0.0 mm 0.00 in0.0 mm 0.02 in0.5 mm
11:00 AM 84.9°F29.4°C 74.5°F23.6°C 71% Calm Calm 3.0 mph4.8 kmh 29.84 in1010.5 mb 0.00 in0.0 mm 0.00 in0.0 mm 0.02 in0.5 mm
11:15 AM 85.7°F29.8°C 74.4°F23.6°C 69% 1.0 mph SSW1.6 kmh SSW 2.0 mph3.2 kmh 29.84 in1010.5 mb 0.00 in0.0 mm 0.00 in0.0 mm 0.02 in0.5 mm
11:30 AM 86.1°F30.1°C 74.3°F23.5°C 68% Calm Calm 3.0 mph4.8 kmh 29.84 in1010.5 mb 0.00 in0.0 mm 0.00 in0.0 mm 0.02 in0.5 mm
11:45 AM 86.8°F30.4°C 75.4°F24.1°C 69% 3.0 mph NNW4.8 kmh NNW 3.0 mph4.8 kmh 29.84 in1010.5 mb 0.00 in0.0 mm 0.00 in0.0 mm 0.02 in0.5 mm
12:00 PM 87.3°F30.7°C 73.2°F22.9°C 63% 2.0 mph WSW3.2 kmh WSW 2.0 mph3.2 kmh 29.84 in1010.5 mb 0.00 in0.0 mm 0.00 in0.0 mm 0.02 in0.5 mm
12:15 PM 87.4°F30.8°C 75.6°F24.2°C 68% 1.0 mph NW1.6 kmh NW 3.0 mph4.8 kmh 29.84 in1010.5 mb 0.00 in0.0 mm 0.00 in0.0 mm 0.02 in0.5 mm
12:30 PM 87.5°F30.8°C 73.4°F23.0°C 63% 2.0 mph NE3.2 kmh NE 3.0 mph4.8 kmh 29.84 in1010.5 mb 0.00 in0.0 mm 0.00 in0.0 mm 0.02 in0.5 mm
12:45 PM 88.0°F31.1°C 73.4°F23.0°C 62% 2.0 mph NNW3.2 kmh NNW 2.0 mph3.2 kmh 29.83 in1010.2 mb 0.00 in0.0 mm 0.00 in0.0 mm 0.02 in0.5 mm
01:00 PM 88.5°F31.4°C 75.7°F24.3°C 66% 1.0 mph WSW1.6 kmh WSW 4.0 mph6.4 kmh 29.83 in1010.2 mb 0.00 in0.0 mm 0.00 in0.0 mm 0.02 in0.5 mm
01:15 PM 88.3°F31.3°C 73.2°F22.9°C 61% 2.0 mph SSW3.2 kmh SSW 5.1 mph8.2 kmh 29.82 in1009.8 mb 0.00 in0.0 mm 0.00 in0.0 mm 0.02 in0.5 mm
01:30 PM 88.2°F31.2°C 75.9°F24.4°C 67% 4.0 mph WSW6.4 kmh WSW 5.1 mph8.2 kmh 29.82 in1009.8 mb 0.00 in0.0 mm 0.00 in0.0 mm 0.02 in0.5 mm
01:45 PM 88.8°F31.6°C 75.1°F23.9°C 64% 2.0 mph ENE3.2 kmh ENE 4.0 mph6.4 kmh 29.81 in1009.5 mb 0.00 in0.0 mm 0.00 in0.0 mm 0.02 in0.5 mm
02:00 PM 89.4°F31.9°C 76.1°F24.5°C 65% 1.0 mph NNW1.6 kmh NNW 4.0 mph6.4 kmh 29.81 in1009.5 mb 0.00 in0.0 mm 0.00 in0.0 mm 0.02 in0.5 mm
02:15 PM 89.7°F32.1°C 76.8°F24.9°C 66% 2.0 mph S3.2 kmh S 4.0 mph6.4 kmh 29.80 in1009.1 mb 0.00 in0.0 mm 0.00 in0.0 mm 0.02 in0.5 mm
02:30 PM 90.0°F32.2°C 77.1°F25.1°C 66% 1.0 mph SW1.6 kmh SW 3.0 mph4.8 kmh 29.80 in1009.1 mb 0.00 in0.0 mm 0.00 in0.0 mm 0.02 in0.5 mm
02:45 PM 90.4°F32.4°C 77.0°F25.0°C 65% 1.0 mph NE1.6 kmh NE 3.0 mph4.8 kmh 29.80 in1009.1 mb 0.00 in0.0 mm 0.00 in0.0 mm 0.02 in0.5 mm
03:00 PM 89.2°F31.8°C 74.5°F23.6°C 62% 1.0 mph NW1.6 kmh NW 4.0 mph6.4 kmh 29.80 in1009.1 mb 0.00 in0.0 mm 0.00 in0.0 mm 0.02 in0.5 mm
03:15 PM 90.3°F32.4°C 76.4°F24.7°C 64% 3.0 mph SSW4.8 kmh SSW 6.1 mph9.8 kmh 29.79 in1008.8 mb 0.00 in0.0 mm 0.00 in0.0 mm 0.02 in0.5 mm
03:30 PM 90.6°F32.6°C 75.3°F24.1°C 61% 6.0 mph SSW9.7 kmh SSW 8.1 mph13.0 kmh 29.78 in1008.5 mb 0.00 in0.0 mm 0.00 in0.0 mm 0.02 in0.5 mm
03:45 PM 90.7°F32.6°C 73.9°F23.3°C 58% 1.0 mph W1.6 kmh W 4.0 mph6.4 kmh 29.78 in1008.5 mb 0.00 in0.0 mm 0.00 in0.0 mm 0.02 in0.5 mm
04:00 PM 90.2°F32.3°C 74.4°F23.6°C 60% 1.0 mph S1.6 kmh S 4.0 mph6.4 kmh 29.77 in1008.1 mb 0.00 in0.0 mm 0.00 in0.0 mm 0.02 in0.5 mm
04:15 PM 91.1°F32.8°C 76.7°F24.8°C 63% 2.0 mph SW3.2 kmh SW 4.0 mph6.4 kmh 29.77 in1008.1 mb 0.00 in0.0 mm 0.00 in0.0 mm 0.02 in0.5 mm
04:30 PM 91.0°F32.8°C 75.7°F24.3°C 61% 1.0 mph S1.6 kmh S 2.0 mph3.2 kmh 29.76 in1007.8 mb 0.00 in0.0 mm 0.00 in0.0 mm 0.02 in0.5 mm
04:45 PM 90.1°F32.3°C 76.2°F24.6°C 64% 4.0 mph WSW6.4 kmh WSW 5.1 mph8.2 kmh 29.76 in1007.8 mb 0.00 in0.0 mm 0.00 in0.0 mm 0.02 in0.5 mm
05:00 PM 90.2°F32.3°C 76.8°F24.9°C 65% 5.0 mph SSW8.0 kmh SSW 6.1 mph9.8 kmh 29.76 in1007.8 mb 0.00 in0.0 mm 0.00 in0.0 mm 0.02 in0.5 mm
05:15 PM 89.8°F32.1°C 76.9°F24.9°C 66% 1.0 mph SSW1.6 kmh SSW 5.1 mph8.2 kmh 29.75 in1007.5 mb 0.00 in0.0 mm 0.00 in0.0 mm 0.02 in0.5 mm
05:30 PM 90.4°F32.4°C 74.6°F23.7°C 60% 1.0 mph WSW1.6 kmh WSW 3.0 mph4.8 kmh 29.75 in1007.5 mb 0.00 in0.0 mm 0.00 in0.0 mm 0.02 in0.5 mm
05:45 PM 88.9°F31.6°C 76.6°F24.8°C 67% Calm Calm 1.0 mph1.6 kmh 29.74 in1007.1 mb 0.00 in0.0 mm 0.00 in0.0 mm 0.02 in0.5 mm
06:00 PM 88.8°F31.6°C 75.1°F23.9°C 64% 4.0 mph S6.4 kmh S 6.1 mph9.8 kmh 29.74 in1007.1 mb 0.00 in0.0 mm 0.00 in0.0 mm 0.02 in0.5 mm
06:15 PM 87.9°F31.1°C 76.5°F24.7°C 69% 4.0 mph S6.4 kmh S 5.1 mph8.2 kmh 29.74 in1007.1 mb 0.00 in0.0 mm 0.00 in0.0 mm 0.02 in0.5 mm
06:30 PM 87.4°F30.8°C 76.0°F24.4°C 69% 1.0 mph SSW1.6 kmh SSW 4.0 mph6.4 kmh 29.74 in1007.1 mb 0.00 in0.0 mm 0.00 in0.0 mm 0.02 in0.5 mm
06:45 PM 86.1°F30.1°C 76.5°F24.7°C 73% Calm Calm -- 29.75 in1007.5 mb 0.00 in0.0 mm 0.00 in0.0 mm 0.02 in0.5 mm
07:00 PM 86.1°F30.1°C 75.2°F24.0°C 70% 2.0 mph SSW3.2 kmh SSW 5.1 mph8.2 kmh 29.75 in1007.5 mb 0.00 in0.0 mm 0.00 in0.0 mm 0.02 in0.5 mm
07:15 PM 85.4°F29.7°C 75.0°F23.9°C 71% 2.0 mph SW3.2 kmh SW 4.0 mph6.4 kmh 29.75 in1007.5 mb 0.00 in0.0 mm 0.00 in0.0 mm 0.02 in0.5 mm
07:30 PM 84.6°F29.2°C 75.4°F24.1°C 74% Calm Calm 2.0 mph3.2 kmh 29.74 in1007.1 mb 0.00 in0.0 mm 0.00 in0.0 mm 0.02 in0.5 mm
07:45 PM 83.7°F28.7°C 75.7°F24.3°C 77% Calm Calm -- 29.75 in1007.5 mb 0.00 in0.0 mm 0.00 in0.0 mm 0.02 in0.5 mm
08:00 PM 82.9°F28.3°C 75.4°F24.1°C 78% Calm Calm 1.0 mph1.6 kmh 29.76 in1007.8 mb 0.00 in0.0 mm 0.00 in0.0 mm 0.02 in0.5 mm
08:15 PM 82.2°F27.9°C 75.8°F24.3°C 81% Calm Calm -- 29.76 in1007.8 mb 0.00 in0.0 mm 0.00 in0.0 mm 0.02 in0.5 mm
08:30 PM 81.5°F27.5°C 75.1°F23.9°C 81% Calm Calm -- 29.76 in1007.8 mb 0.00 in0.0 mm 0.00 in0.0 mm 0.02 in0.5 mm
08:45 PM 80.9°F27.2°C 75.3°F24.1°C 83% Calm Calm -- 29.75 in1007.5 mb 0.00 in0.0 mm 0.00 in0.0 mm 0.02 in0.5 mm
09:00 PM 80.4°F26.9°C 74.8°F23.8°C 83% Calm Calm -- 29.75 in1007.5 mb 0.00 in0.0 mm 0.00 in0.0 mm 0.02 in0.5 mm
09:15 PM 79.9°F26.6°C 74.6°F23.7°C 84% Calm Calm -- 29.76 in1007.8 mb 0.00 in0.0 mm 0.00 in0.0 mm 0.02 in0.5 mm
09:30 PM 79.6°F26.4°C 74.7°F23.7°C 85% Calm Calm -- 29.76 in1007.8 mb 0.00 in0.0 mm 0.00 in0.0 mm 0.02 in0.5 mm
09:45 PM 79.3°F26.3°C 74.8°F23.8°C 86% Calm Calm -- 29.77 in1008.1 mb 0.00 in0.0 mm 0.00 in0.0 mm 0.02 in0.5 mm
10:00 PM 79.3°F26.3°C 74.8°F23.8°C 86% Calm Calm 8.1 mph13.0 kmh 29.78 in1008.5 mb 0.00 in0.0 mm 0.00 in0.0 mm 0.02 in0.5 mm
10:15 PM 79.3°F26.3°C 73.7°F23.2°C 83% 2.0 mph WSW3.2 kmh WSW 5.1 mph8.2 kmh 29.78 in1008.5 mb 0.00 in0.0 mm 0.00 in0.0 mm 0.02 in0.5 mm
10:30 PM 79.3°F26.3°C 73.3°F22.9°C 82% 1.0 mph SW1.6 kmh SW 2.0 mph3.2 kmh 29.77 in1008.1 mb 0.00 in0.0 mm 0.00 in0.0 mm 0.02 in0.5 mm
10:45 PM 78.5°F25.8°C 73.3°F22.9°C 84% 1.0 mph SW1.6 kmh SW 2.0 mph3.2 kmh 29.77 in1008.1 mb 0.00 in0.0 mm 0.00 in0.0 mm 0.02 in0.5 mm
11:00 PM 78.0°F25.6°C 73.5°F23.1°C 86% Calm Calm -- 29.78 in1008.5 mb 0.00 in0.0 mm 0.00 in0.0 mm 0.02 in0.5 mm
11:15 PM 79.2°F26.2°C 72.5°F22.5°C 80% 7.0 mph SW11.3 kmh SW 11.1 mph17.9 kmh 29.79 in1008.8 mb 0.00 in0.0 mm 0.00 in0.0 mm 0.02 in0.5 mm
11:30 PM 78.6°F25.9°C 71.9°F22.2°C 80% 6.0 mph SSW9.7 kmh SSW 6.1 mph9.8 kmh 29.79 in1008.8 mb 0.00 in0.0 mm 0.00 in0.0 mm 0.02 in0.5 mm
11:45 PM 78.2°F25.7°C 71.5°F21.9°C 80% 3.0 mph SSW4.8 kmh SSW 6.1 mph9.8 kmh 29.79 in1008.8 mb 0.00 in0.0 mm 0.00 in0.0 mm 0.02 in0.5 mm